sensor_id;sensor_type;location;lat;lon;timestamp;temperature;humidity
5174;DHT22;2606;50.934;6.934;2022-10-16T00:01:58;15.20;99.90
5174;DHT22;2606;50.934;6.934;2022-10-16T00:04:23;15.20;99.90
5174;DHT22;2606;50.934;6.934;2022-10-16T00:06:49;15.30;99.90
5174;DHT22;2606;50.934;6.934;2022-10-16T00:09:14;15.20;99.90
5174;DHT22;2606;50.934;6.934;2022-10-16T00:11:40;15.20;99.90
5174;DHT22;2606;50.934;6.934;2022-10-16T00:14:12;15.20;99.90
5174;DHT22;2606;50.934;6.934;2022-10-16T00:16:38;15.20;99.90
5174;DHT22;2606;50.934;6.934;2022-10-16T00:19:04;15.10;99.90
5174;DHT22;2606;50.934;6.934;2022-10-16T00:21:30;15.20;99.90
5174;DHT22;2606;50.934;6.934;2022-10-16T00:23:59;15.10;99.90
5174;DHT22;2606;50.934;6.934;2022-10-16T00:26:25;15.20;99.90
5174;DHT22;2606;50.934;6.934;2022-10-16T00:28:52;15.10;99.90
5174;DHT22;2606;50.934;6.934;2022-10-16T00:31:20;15.10;99.90
5174;DHT22;2606;50.934;6.934;2022-10-16T00:33:46;15.10;99.90
5174;DHT22;2606;50.934;6.934;2022-10-16T00:36:14;15.20;99.90
5174;DHT22;2606;50.934;6.934;2022-10-16T00:38:40;15.50;99.90
5174;DHT22;2606;50.934;6.934;2022-10-16T00:41:09;15.10;99.90
5174;DHT22;2606;50.934;6.934;2022-10-16T00:43:43;15.00;99.90
5174;DHT22;2606;50.934;6.934;2022-10-16T00:51:39;15.10;99.90
5174;DHT22;2606;50.934;6.934;2022-10-16T00:54:10;15.10;99.90
5174;DHT22;2606;50.934;6.934;2022-10-16T00:56:37;15.00;99.90
5174;DHT22;2606;50.934;6.934;2022-10-16T00:59:10;15.20;99.90
5174;DHT22;2606;50.934;6.934;2022-10-16T01:01:37;15.10;99.90
5174;DHT22;2606;50.934;6.934;2022-10-16T01:04:03;15.00;99.90
5174;DHT22;2606;50.934;6.934;2022-10-16T01:06:43;15.00;99.90
5174;DHT22;2606;50.934;6.934;2022-10-16T01:09:20;15.00;99.90
5174;DHT22;2606;50.934;6.934;2022-10-16T01:18:05;15.00;99.90
5174;DHT22;2606;50.934;6.934;2022-10-16T01:20:36;15.00;99.90
5174;DHT22;2606;50.934;6.934;2022-10-16T01:28:56;14.90;99.90
5174;DHT22;2606;50.934;6.934;2022-10-16T01:31:25;14.90;99.90
5174;DHT22;2606;50.934;6.934;2022-10-16T01:34:05;14.90;99.90
5174;DHT22;2606;50.934;6.934;2022-10-16T01:36:37;14.90;99.90
5174;DHT22;2606;50.934;6.934;2022-10-16T01:39:05;14.90;99.90
5174;DHT22;2606;50.934;6.934;2022-10-16T01:41:36;15.00;99.90
5174;DHT22;2606;50.934;6.934;2022-10-16T01:44:30;14.90;99.90
5174;DHT22;2606;50.934;6.934;2022-10-16T01:46:55;14.90;99.90
5174;DHT22;2606;50.934;6.934;2022-10-16T01:49:23;14.80;99.90
5174;DHT22;2606;50.934;6.934;2022-10-16T01:51:53;14.80;99.90
5174;DHT22;2606;50.934;6.934;2022-10-16T01:54:23;14.80;99.90
5174;DHT22;2606;50.934;6.934;2022-10-16T01:56:51;14.80;99.90
5174;DHT22;2606;50.934;6.934;2022-10-16T01:59:20;14.80;99.90
5174;DHT22;2606;50.934;6.934;2022-10-16T02:01:52;14.90;99.90
5174;DHT22;2606;50.934;6.934;2022-10-16T02:04:39;14.70;99.90
5174;DHT22;2606;50.934;6.934;2022-10-16T02:07:07;14.80;99.90
5174;DHT22;2606;50.934;6.934;2022-10-16T02:09:34;14.70;99.90
5174;DHT22;2606;50.934;6.934;2022-10-16T02:12:06;14.90;99.90
5174;DHT22;2606;50.934;6.934;2022-10-16T02:14:34;14.80;99.90
5174;DHT22;2606;50.934;6.934;2022-10-16T02:17:14;14.80;99.90
5174;DHT22;2606;50.934;6.934;2022-10-16T02:19:40;14.80;99.90
5174;DHT22;2606;50.934;6.934;2022-10-16T02:22:07;14.90;99.90
5174;DHT22;2606;50.934;6.934;2022-10-16T02:30:03;14.90;99.90
5174;DHT22;2606;50.934;6.934;2022-10-16T02:32:33;14.80;99.90
5174;DHT22;2606;50.934;6.934;2022-10-16T02:35:00;14.90;99.90
5174;DHT22;2606;50.934;6.934;2022-10-16T02:37:26;14.90;99.90
5174;DHT22;2606;50.934;6.934;2022-10-16T02:39:54;14.90;99.90
5174;DHT22;2606;50.934;6.934;2022-10-16T02:42:20;14.90;99.90
5174;DHT22;2606;50.934;6.934;2022-10-16T02:44:45;14.80;99.90
5174;DHT22;2606;50.934;6.934;2022-10-16T02:47:11;14.90;99.90
5174;DHT22;2606;50.934;6.934;2022-10-16T02:49:37;14.80;99.90
5174;DHT22;2606;50.934;6.934;2022-10-16T02:52:03;14.80;99.90
5174;DHT22;2606;50.934;6.934;2022-10-16T02:54:29;14.90;99.90
5174;DHT22;2606;50.934;6.934;2022-10-16T02:56:54;14.80;99.90
5174;DHT22;2606;50.934;6.934;2022-10-16T02:59:20;14.80;99.90
5174;DHT22;2606;50.934;6.934;2022-10-16T03:01:45;14.80;99.90
5174;DHT22;2606;50.934;6.934;2022-10-16T03:04:11;14.90;99.90
5174;DHT22;2606;50.934;6.934;2022-10-16T03:06:36;14.80;99.90
5174;DHT22;2606;50.934;6.934;2022-10-16T03:09:02;14.80;99.90
5174;DHT22;2606;50.934;6.934;2022-10-16T03:11:28;14.80;99.90
5174;DHT22;2606;50.934;6.934;2022-10-16T03:13:53;14.80;99.90
5174;DHT22;2606;50.934;6.934;2022-10-16T03:16:19;14.80;99.90
5174;DHT22;2606;50.934;6.934;2022-10-16T03:18:48;14.80;99.90
5174;DHT22;2606;50.934;6.934;2022-10-16T03:21:15;14.80;99.90
5174;DHT22;2606;50.934;6.934;2022-10-16T03:23:40;14.70;99.90
5174;DHT22;2606;50.934;6.934;2022-10-16T03:26:06;14.70;99.90
5174;DHT22;2606;50.934;6.934;2022-10-16T03:28:31;14.70;99.90
5174;DHT22;2606;50.934;6.934;2022-10-16T03:30:57;14.80;99.90
5174;DHT22;2606;50.934;6.934;2022-10-16T03:33:22;14.80;99.90
5174;DHT22;2606;50.934;6.934;2022-10-16T03:35:52;14.70;99.90
5174;DHT22;2606;50.934;6.934;2022-10-16T03:38:18;14.70;99.90
5174;DHT22;2606;50.934;6.934;2022-10-16T03:40:44;14.70;99.90
5174;DHT22;2606;50.934;6.934;2022-10-16T03:43:10;14.70;99.90
5174;DHT22;2606;50.934;6.934;2022-10-16T03:45:35;14.60;99.90
5174;DHT22;2606;50.934;6.934;2022-10-16T03:48:01;14.70;99.90
5174;DHT22;2606;50.934;6.934;2022-10-16T03:50:27;14.70;99.90
5174;DHT22;2606;50.934;6.934;2022-10-16T03:52:53;14.70;99.90
5174;DHT22;2606;50.934;6.934;2022-10-16T03:55:19;14.70;99.90
5174;DHT22;2606;50.934;6.934;2022-10-16T03:57:44;14.70;99.90
5174;DHT22;2606;50.934;6.934;2022-10-16T04:00:10;14.70;99.90
5174;DHT22;2606;50.934;6.934;2022-10-16T04:02:36;14.70;99.90
5174;DHT22;2606;50.934;6.934;2022-10-16T04:05:08;14.70;99.90
5174;DHT22;2606;50.934;6.934;2022-10-16T04:07:34;14.70;99.90
5174;DHT22;2606;50.934;6.934;2022-10-16T04:09:59;14.80;99.90
5174;DHT22;2606;50.934;6.934;2022-10-16T04:12:28;14.80;99.90
5174;DHT22;2606;50.934;6.934;2022-10-16T04:14:53;14.80;99.90
5174;DHT22;2606;50.934;6.934;2022-10-16T04:17:19;14.70;99.90
5174;DHT22;2606;50.934;6.934;2022-10-16T04:19:45;14.70;99.90
5174;DHT22;2606;50.934;6.934;2022-10-16T04:22:11;14.70;99.90
5174;DHT22;2606;50.934;6.934;2022-10-16T04:24:37;14.70;99.90
5174;DHT22;2606;50.934;6.934;2022-10-16T04:27:02;14.80;99.90
5174;DHT22;2606;50.934;6.934;2022-10-16T04:29:28;14.70;99.90
5174;DHT22;2606;50.934;6.934;2022-10-16T04:31:53;14.80;99.90
5174;DHT22;2606;50.934;6.934;2022-10-16T04:34:19;14.70;99.90
5174;DHT22;2606;50.934;6.934;2022-10-16T04:36:47;14.70;99.90
5174;DHT22;2606;50.934;6.934;2022-10-16T04:39:15;15.10;99.90
5174;DHT22;2606;50.934;6.934;2022-10-16T04:41:40;14.70;99.90
5174;DHT22;2606;50.934;6.934;2022-10-16T04:44:06;14.90;99.90
5174;DHT22;2606;50.934;6.934;2022-10-16T04:46:31;14.80;99.90
5174;DHT22;2606;50.934;6.934;2022-10-16T04:48:57;14.90;99.90
5174;DHT22;2606;50.934;6.934;2022-10-16T04:51:23;14.70;99.90
5174;DHT22;2606;50.934;6.934;2022-10-16T04:53:48;14.80;99.90
5174;DHT22;2606;50.934;6.934;2022-10-16T04:56:14;14.70;99.90
5174;DHT22;2606;50.934;6.934;2022-10-16T04:58:40;14.70;99.90
5174;DHT22;2606;50.934;6.934;2022-10-16T05:01:06;14.70;99.90
5174;DHT22;2606;50.934;6.934;2022-10-16T05:03:32;14.70;99.90
5174;DHT22;2606;50.934;6.934;2022-10-16T05:05:57;14.70;99.90
5174;DHT22;2606;50.934;6.934;2022-10-16T05:08:23;14.70;99.90
5174;DHT22;2606;50.934;6.934;2022-10-16T05:10:49;14.70;99.90
5174;DHT22;2606;50.934;6.934;2022-10-16T05:13:14;14.80;99.90
5174;DHT22;2606;50.934;6.934;2022-10-16T05:15:40;15.10;99.90
5174;DHT22;2606;50.934;6.934;2022-10-16T05:18:05;14.80;99.90
5174;DHT22;2606;50.934;6.934;2022-10-16T05:20:31;14.70;99.90
5174;DHT22;2606;50.934;6.934;2022-10-16T05:22:57;14.80;99.90
5174;DHT22;2606;50.934;6.934;2022-10-16T05:25:23;15.10;99.90
5174;DHT22;2606;50.934;6.934;2022-10-16T05:27:49;14.90;99.90
5174;DHT22;2606;50.934;6.934;2022-10-16T05:30:19;14.90;99.90
5174;DHT22;2606;50.934;6.934;2022-10-16T05:32:50;14.90;99.90
5174;DHT22;2606;50.934;6.934;2022-10-16T05:35:17;14.90;99.90
5174;DHT22;2606;50.934;6.934;2022-10-16T05:37:43;14.90;99.90
5174;DHT22;2606;50.934;6.934;2022-10-16T05:40:09;15.20;99.90
5174;DHT22;2606;50.934;6.934;2022-10-16T05:42:35;14.90;99.90
5174;DHT22;2606;50.934;6.934;2022-10-16T05:45:01;14.90;99.90
5174;DHT22;2606;50.934;6.934;2022-10-16T05:47:27;14.90;99.90
5174;DHT22;2606;50.934;6.934;2022-10-16T05:49:52;14.70;99.90
5174;DHT22;2606;50.934;6.934;2022-10-16T05:52:18;14.90;99.90
5174;DHT22;2606;50.934;6.934;2022-10-16T05:54:44;14.80;99.90
5174;DHT22;2606;50.934;6.934;2022-10-16T05:57:09;14.80;99.90
5174;DHT22;2606;50.934;6.934;2022-10-16T05:59:35;14.80;99.90
5174;DHT22;2606;50.934;6.934;2022-10-16T06:02:01;14.80;99.90
5174;DHT22;2606;50.934;6.934;2022-10-16T06:04:26;14.60;99.90
5174;DHT22;2606;50.934;6.934;2022-10-16T06:06:52;14.70;99.90
5174;DHT22;2606;50.934;6.934;2022-10-16T06:09:17;14.70;99.90
5174;DHT22;2606;50.934;6.934;2022-10-16T06:11:43;14.70;99.90
5174;DHT22;2606;50.934;6.934;2022-10-16T06:14:09;14.70;99.90
5174;DHT22;2606;50.934;6.934;2022-10-16T06:16:36;14.70;99.90
5174;DHT22;2606;50.934;6.934;2022-10-16T06:19:02;14.60;99.90
5174;DHT22;2606;50.934;6.934;2022-10-16T06:21:31;14.60;99.90
5174;DHT22;2606;50.934;6.934;2022-10-16T06:23:57;14.60;99.90
5174;DHT22;2606;50.934;6.934;2022-10-16T06:26:26;14.70;99.90
5174;DHT22;2606;50.934;6.934;2022-10-16T06:28:54;14.60;99.90
5174;DHT22;2606;50.934;6.934;2022-10-16T06:31:20;14.60;99.90
5174;DHT22;2606;50.934;6.934;2022-10-16T06:33:50;14.90;99.90
5174;DHT22;2606;50.934;6.934;2022-10-16T06:36:17;14.60;99.90
5174;DHT22;2606;50.934;6.934;2022-10-16T06:38:44;14.70;99.90
5174;DHT22;2606;50.934;6.934;2022-10-16T06:41:12;14.70;99.90
5174;DHT22;2606;50.934;6.934;2022-10-16T06:43:38;14.80;99.90
5174;DHT22;2606;50.934;6.934;2022-10-16T06:46:05;14.80;99.90
5174;DHT22;2606;50.934;6.934;2022-10-16T06:48:33;14.80;99.90
5174;DHT22;2606;50.934;6.934;2022-10-16T06:51:16;14.90;99.90
5174;DHT22;2606;50.934;6.934;2022-10-16T06:53:44;14.90;99.90
5174;DHT22;2606;50.934;6.934;2022-10-16T06:56:15;14.90;99.90
5174;DHT22;2606;50.934;6.934;2022-10-16T06:58:43;15.00;99.90
5174;DHT22;2606;50.934;6.934;2022-10-16T07:01:10;15.00;99.90
5174;DHT22;2606;50.934;6.934;2022-10-16T07:03:37;15.10;99.90
5174;DHT22;2606;50.934;6.934;2022-10-16T07:06:05;15.20;99.90
5174;DHT22;2606;50.934;6.934;2022-10-16T07:08:32;15.20;99.90
5174;DHT22;2606;50.934;6.934;2022-10-16T07:11:02;15.20;99.90
5174;DHT22;2606;50.934;6.934;2022-10-16T07:13:29;15.20;99.90
5174;DHT22;2606;50.934;6.934;2022-10-16T07:15:54;15.20;99.90
5174;DHT22;2606;50.934;6.934;2022-10-16T07:18:20;15.30;99.90
5174;DHT22;2606;50.934;6.934;2022-10-16T07:20:46;15.30;99.90
5174;DHT22;2606;50.934;6.934;2022-10-16T07:23:11;15.40;99.90
5174;DHT22;2606;50.934;6.934;2022-10-16T07:25:37;15.40;99.90
5174;DHT22;2606;50.934;6.934;2022-10-16T07:28:02;15.60;99.90
5174;DHT22;2606;50.934;6.934;2022-10-16T07:30:28;15.50;99.90
5174;DHT22;2606;50.934;6.934;2022-10-16T07:32:54;15.50;99.90
5174;DHT22;2606;50.934;6.934;2022-10-16T07:35:19;15.50;99.90
5174;DHT22;2606;50.934;6.934;2022-10-16T07:37:45;15.50;99.90
5174;DHT22;2606;50.934;6.934;2022-10-16T07:40:11;15.40;99.90
5174;DHT22;2606;50.934;6.934;2022-10-16T07:42:37;15.60;99.90
5174;DHT22;2606;50.934;6.934;2022-10-16T07:45:03;15.60;99.90
5174;DHT22;2606;50.934;6.934;2022-10-16T07:47:29;15.60;99.90
5174;DHT22;2606;50.934;6.934;2022-10-16T07:49:54;15.20;99.90
5174;DHT22;2606;50.934;6.934;2022-10-16T07:52:20;15.60;99.90
5174;DHT22;2606;50.934;6.934;2022-10-16T07:54:45;15.60;99.90
5174;DHT22;2606;50.934;6.934;2022-10-16T07:57:11;15.70;99.90
5174;DHT22;2606;50.934;6.934;2022-10-16T07:59:36;15.60;99.90
5174;DHT22;2606;50.934;6.934;2022-10-16T08:02:02;15.60;99.90
5174;DHT22;2606;50.934;6.934;2022-10-16T08:04:28;15.50;99.90
5174;DHT22;2606;50.934;6.934;2022-10-16T08:06:53;15.60;99.90
5174;DHT22;2606;50.934;6.934;2022-10-16T08:09:19;15.60;99.90
5174;DHT22;2606;50.934;6.934;2022-10-16T08:11:45;15.40;99.90
5174;DHT22;2606;50.934;6.934;2022-10-16T08:14:11;15.60;99.90
5174;DHT22;2606;50.934;6.934;2022-10-16T08:16:36;15.90;99.90
5174;DHT22;2606;50.934;6.934;2022-10-16T08:19:02;15.70;99.90
5174;DHT22;2606;50.934;6.934;2022-10-16T08:21:28;15.70;99.90
5174;DHT22;2606;50.934;6.934;2022-10-16T08:23:53;15.80;99.90
5174;DHT22;2606;50.934;6.934;2022-10-16T08:26:20;15.80;99.90
5174;DHT22;2606;50.934;6.934;2022-10-16T08:28:48;16.00;99.90
5174;DHT22;2606;50.934;6.934;2022-10-16T08:31:15;16.00;99.90
5174;DHT22;2606;50.934;6.934;2022-10-16T08:33:42;16.20;99.90
5174;DHT22;2606;50.934;6.934;2022-10-16T08:36:10;16.30;99.90
5174;DHT22;2606;50.934;6.934;2022-10-16T08:38:36;16.40;99.90
5174;DHT22;2606;50.934;6.934;2022-10-16T08:41:40;16.40;99.90
5174;DHT22;2606;50.934;6.934;2022-10-16T08:49:35;16.80;99.90
5174;DHT22;2606;50.934;6.934;2022-10-16T08:52:01;16.90;99.90
5174;DHT22;2606;50.934;6.934;2022-10-16T08:54:37;17.00;99.90
5174;DHT22;2606;50.934;6.934;2022-10-16T08:57:20;17.10;99.90
5174;DHT22;2606;50.934;6.934;2022-10-16T08:59:46;17.20;99.90
5174;DHT22;2606;50.934;6.934;2022-10-16T09:02:36;17.30;99.90
5174;DHT22;2606;50.934;6.934;2022-10-16T09:07:53;17.50;99.90
5174;DHT22;2606;50.934;6.934;2022-10-16T09:10:40;17.60;99.90
5174;DHT22;2606;50.934;6.934;2022-10-16T09:13:23;17.70;99.90
5174;DHT22;2606;50.934;6.934;2022-10-16T09:15:59;17.80;99.90
5174;DHT22;2606;50.934;6.934;2022-10-16T09:18:29;17.90;99.90
5174;DHT22;2606;50.934;6.934;2022-10-16T09:23:28;18.10;99.90
5174;DHT22;2606;50.934;6.934;2022-10-16T09:25:55;18.20;99.90
5174;DHT22;2606;50.934;6.934;2022-10-16T09:28:21;18.40;99.90
5174;DHT22;2606;50.934;6.934;2022-10-16T09:30:47;18.70;99.90
5174;DHT22;2606;50.934;6.934;2022-10-16T09:33:19;19.00;99.90
5174;DHT22;2606;50.934;6.934;2022-10-16T09:35:50;19.40;99.90
5174;DHT22;2606;50.934;6.934;2022-10-16T09:38:28;19.90;99.90
5174;DHT22;2606;50.934;6.934;2022-10-16T09:40:56;20.40;99.90
5174;DHT22;2606;50.934;6.934;2022-10-16T09:45:57;20.70;99.90
5174;DHT22;2606;50.934;6.934;2022-10-16T09:48:27;20.80;99.30
5174;DHT22;2606;50.934;6.934;2022-10-16T09:51:02;21.00;99.50
5174;DHT22;2606;50.934;6.934;2022-10-16T09:53:46;21.40;98.90
5174;DHT22;2606;50.934;6.934;2022-10-16T09:56:25;21.50;98.20
5174;DHT22;2606;50.934;6.934;2022-10-16T09:58:56;21.50;97.30
5174;DHT22;2606;50.934;6.934;2022-10-16T10:01:26;21.60;97.40
5174;DHT22;2606;50.934;6.934;2022-10-16T10:03:56;21.70;97.20
5174;DHT22;2606;50.934;6.934;2022-10-16T10:06:32;21.80;96.80
5174;DHT22;2606;50.934;6.934;2022-10-16T10:09:02;21.90;97.00
5174;DHT22;2606;50.934;6.934;2022-10-16T10:11:42;22.00;96.50
5174;DHT22;2606;50.934;6.934;2022-10-16T10:14:23;22.10;96.70
5174;DHT22;2606;50.934;6.934;2022-10-16T10:16:50;22.50;96.30
5174;DHT22;2606;50.934;6.934;2022-10-16T10:19:19;22.60;95.50
5174;DHT22;2606;50.934;6.934;2022-10-16T10:21:45;22.80;94.90
5174;DHT22;2606;50.934;6.934;2022-10-16T10:24:13;23.00;94.10
5174;DHT22;2606;50.934;6.934;2022-10-16T10:26:44;23.10;94.40
5174;DHT22;2606;50.934;6.934;2022-10-16T10:34:56;23.00;93.70
5174;DHT22;2606;50.934;6.934;2022-10-16T10:42:52;22.50;93.90
5174;DHT22;2606;50.934;6.934;2022-10-16T10:50:42;22.20;94.50
5174;DHT22;2606;50.934;6.934;2022-10-16T10:56:14;22.20;94.70
5174;DHT22;2606;50.934;6.934;2022-10-16T11:01:48;22.80;94.30
5174;DHT22;2606;50.934;6.934;2022-10-16T11:07:00;23.30;92.30
5174;DHT22;2606;50.934;6.934;2022-10-16T11:09:47;23.20;92.00
5174;DHT22;2606;50.934;6.934;2022-10-16T11:12:24;23.00;91.80
5174;DHT22;2606;50.934;6.934;2022-10-16T11:17:38;22.80;92.30
5174;DHT22;2606;50.934;6.934;2022-10-16T11:22:54;22.70;92.20
5174;DHT22;2606;50.934;6.934;2022-10-16T11:25:24;22.60;92.20
5174;DHT22;2606;50.934;6.934;2022-10-16T11:27:53;22.50;92.20
5174;DHT22;2606;50.934;6.934;2022-10-16T11:30:25;22.40;92.40
5174;DHT22;2606;50.934;6.934;2022-10-16T11:40:53;22.20;92.70
5174;DHT22;2606;50.934;6.934;2022-10-16T11:43:37;22.20;92.60
5174;DHT22;2606;50.934;6.934;2022-10-16T11:46:24;22.10;92.60
5174;DHT22;2606;50.934;6.934;2022-10-16T11:49:09;22.10;93.10
5174;DHT22;2606;50.934;6.934;2022-10-16T11:51:41;22.00;93.10
5174;DHT22;2606;50.934;6.934;2022-10-16T11:56:57;22.10;93.20
5174;DHT22;2606;50.934;6.934;2022-10-16T11:59:45;22.10;93.00
5174;DHT22;2606;50.934;6.934;2022-10-16T12:02:33;22.20;93.40
5174;DHT22;2606;50.934;6.934;2022-10-16T12:05:18;22.30;93.30
5174;DHT22;2606;50.934;6.934;2022-10-16T12:08:00;22.30;92.70
5174;DHT22;2606;50.934;6.934;2022-10-16T12:10:29;22.40;92.50
5174;DHT22;2606;50.934;6.934;2022-10-16T12:12:57;22.30;92.10
5174;DHT22;2606;50.934;6.934;2022-10-16T12:15:31;22.30;91.80
5174;DHT22;2606;50.934;6.934;2022-10-16T12:17:57;22.20;92.30
5174;DHT22;2606;50.934;6.934;2022-10-16T12:20:33;22.20;92.10
5174;DHT22;2606;50.934;6.934;2022-10-16T12:23:05;22.20;91.80
5174;DHT22;2606;50.934;6.934;2022-10-16T12:25:33;22.10;91.90
5174;DHT22;2606;50.934;6.934;2022-10-16T12:28:16;22.10;92.20
5174;DHT22;2606;50.934;6.934;2022-10-16T12:30:43;22.10;91.90
5174;DHT22;2606;50.934;6.934;2022-10-16T12:33:52;22.00;91.70
5174;DHT22;2606;50.934;6.934;2022-10-16T12:36:13;22.00;91.80
5174;DHT22;2606;50.934;6.934;2022-10-16T12:38:47;22.00;92.00
5174;DHT22;2606;50.934;6.934;2022-10-16T12:41:33;22.10;91.80
5174;DHT22;2606;50.934;6.934;2022-10-16T12:44:00;22.10;91.70
5174;DHT22;2606;50.934;6.934;2022-10-16T12:51:41;22.10;91.50
5174;DHT22;2606;50.934;6.934;2022-10-16T12:54:14;22.10;91.80
5174;DHT22;2606;50.934;6.934;2022-10-16T12:59:25;22.00;91.80
5174;DHT22;2606;50.934;6.934;2022-10-16T13:10:15;21.80;92.50
5174;DHT22;2606;50.934;6.934;2022-10-16T13:15:57;21.80;92.30
5174;DHT22;2606;50.934;6.934;2022-10-16T13:18:27;21.80;92.30
5174;DHT22;2606;50.934;6.934;2022-10-16T13:26:49;21.80;92.60
5174;DHT22;2606;50.934;6.934;2022-10-16T13:29:18;21.80;93.00
5174;DHT22;2606;50.934;6.934;2022-10-16T13:31:44;21.70;92.60
5174;DHT22;2606;50.934;6.934;2022-10-16T13:34:19;21.70;92.80
5174;DHT22;2606;50.934;6.934;2022-10-16T13:36:48;21.80;93.00
5174;DHT22;2606;50.934;6.934;2022-10-16T13:39:25;21.80;93.00
5174;DHT22;2606;50.934;6.934;2022-10-16T13:42:04;21.90;93.10
5174;DHT22;2606;50.934;6.934;2022-10-16T13:44:40;21.90;92.70
5174;DHT22;2606;50.934;6.934;2022-10-16T13:47:16;21.90;92.70
5174;DHT22;2606;50.934;6.934;2022-10-16T13:49:42;21.90;92.80
5174;DHT22;2606;50.934;6.934;2022-10-16T13:52:18;21.90;92.70
5174;DHT22;2606;50.934;6.934;2022-10-16T13:54:44;21.90;92.60
5174;DHT22;2606;50.934;6.934;2022-10-16T13:57:16;21.90;92.60
5174;DHT22;2606;50.934;6.934;2022-10-16T13:59:42;21.90;92.70
5174;DHT22;2606;50.934;6.934;2022-10-16T14:05:01;21.80;93.00
5174;DHT22;2606;50.934;6.934;2022-10-16T14:07:34;21.80;93.10
5174;DHT22;2606;50.934;6.934;2022-10-16T14:10:04;21.80;93.10
5174;DHT22;2606;50.934;6.934;2022-10-16T14:12:30;21.80;93.40
5174;DHT22;2606;50.934;6.934;2022-10-16T14:14:57;21.80;93.20
5174;DHT22;2606;50.934;6.934;2022-10-16T14:17:27;21.80;93.20
5174;DHT22;2606;50.934;6.934;2022-10-16T14:19:56;21.80;93.50
5174;DHT22;2606;50.934;6.934;2022-10-16T14:22:38;21.80;93.70
5174;DHT22;2606;50.934;6.934;2022-10-16T14:25:27;21.70;93.80
5174;DHT22;2606;50.934;6.934;2022-10-16T14:28:23;21.70;94.00
5174;DHT22;2606;50.934;6.934;2022-10-16T14:30:56;21.70;94.30
5174;DHT22;2606;50.934;6.934;2022-10-16T14:36:06;21.60;94.70
5174;DHT22;2606;50.934;6.934;2022-10-16T14:38:41;21.60;95.00
5174;DHT22;2606;50.934;6.934;2022-10-16T14:41:08;21.60;95.20
5174;DHT22;2606;50.934;6.934;2022-10-16T14:43:37;21.60;95.40
5174;DHT22;2606;50.934;6.934;2022-10-16T14:46:12;21.60;95.60
5174;DHT22;2606;50.934;6.934;2022-10-16T14:48:50;21.60;95.70
5174;DHT22;2606;50.934;6.934;2022-10-16T14:51:20;21.50;95.80
5174;DHT22;2606;50.934;6.934;2022-10-16T14:53:46;21.50;96.20
5174;DHT22;2606;50.934;6.934;2022-10-16T14:56:20;21.50;96.40
5174;DHT22;2606;50.934;6.934;2022-10-16T14:58:46;21.50;96.50
5174;DHT22;2606;50.934;6.934;2022-10-16T15:01:12;21.50;96.60
5174;DHT22;2606;50.934;6.934;2022-10-16T15:03:38;21.50;96.80
5174;DHT22;2606;50.934;6.934;2022-10-16T15:06:18;21.40;97.00
5174;DHT22;2606;50.934;6.934;2022-10-16T15:08:44;21.40;97.20
5174;DHT22;2606;50.934;6.934;2022-10-16T15:11:15;21.40;97.50
5174;DHT22;2606;50.934;6.934;2022-10-16T15:13:41;21.30;97.60
5174;DHT22;2606;50.934;6.934;2022-10-16T15:16:15;21.30;97.80
5174;DHT22;2606;50.934;6.934;2022-10-16T15:18:41;21.20;98.00
5174;DHT22;2606;50.934;6.934;2022-10-16T15:21:07;21.20;98.20
5174;DHT22;2606;50.934;6.934;2022-10-16T15:23:33;21.20;98.30
5174;DHT22;2606;50.934;6.934;2022-10-16T15:25:59;21.10;98.60
5174;DHT22;2606;50.934;6.934;2022-10-16T15:28:25;21.10;98.70
5174;DHT22;2606;50.934;6.934;2022-10-16T15:30:56;21.10;98.90
5174;DHT22;2606;50.934;6.934;2022-10-16T15:33:24;21.00;99.00
5174;DHT22;2606;50.934;6.934;2022-10-16T15:35:53;21.00;99.20
5174;DHT22;2606;50.934;6.934;2022-10-16T15:38:20;21.00;99.40
5174;DHT22;2606;50.934;6.934;2022-10-16T15:40:47;21.00;99.50
5174;DHT22;2606;50.934;6.934;2022-10-16T15:43:13;20.90;99.60
5174;DHT22;2606;50.934;6.934;2022-10-16T15:45:39;20.90;99.70
5174;DHT22;2606;50.934;6.934;2022-10-16T15:48:05;20.90;99.90
5174;DHT22;2606;50.934;6.934;2022-10-16T15:50:31;20.80;99.90
5174;DHT22;2606;50.934;6.934;2022-10-16T15:52:57;20.80;99.90
5174;DHT22;2606;50.934;6.934;2022-10-16T15:55:23;20.80;99.90
5174;DHT22;2606;50.934;6.934;2022-10-16T15:57:49;20.70;99.90
5174;DHT22;2606;50.934;6.934;2022-10-16T16:00:17;20.80;99.90
5174;DHT22;2606;50.934;6.934;2022-10-16T16:02:45;20.70;99.90
5174;DHT22;2606;50.934;6.934;2022-10-16T16:05:14;20.60;99.90
5174;DHT22;2606;50.934;6.934;2022-10-16T16:07:40;20.60;99.90
5174;DHT22;2606;50.934;6.934;2022-10-16T16:10:07;20.60;99.90
5174;DHT22;2606;50.934;6.934;2022-10-16T16:12:33;20.50;99.90
5174;DHT22;2606;50.934;6.934;2022-10-16T16:14:59;20.50;99.90
5174;DHT22;2606;50.934;6.934;2022-10-16T16:17:24;20.40;99.90
5174;DHT22;2606;50.934;6.934;2022-10-16T16:19:50;20.40;99.90
5174;DHT22;2606;50.934;6.934;2022-10-16T16:22:16;20.40;99.90
5174;DHT22;2606;50.934;6.934;2022-10-16T16:24:42;20.40;99.90
5174;DHT22;2606;50.934;6.934;2022-10-16T16:27:10;20.30;99.90
5174;DHT22;2606;50.934;6.934;2022-10-16T16:29:35;20.30;99.90
5174;DHT22;2606;50.934;6.934;2022-10-16T16:32:01;20.30;99.90
5174;DHT22;2606;50.934;6.934;2022-10-16T16:34:28;20.30;99.90
5174;DHT22;2606;50.934;6.934;2022-10-16T16:36:54;20.20;99.90
5174;DHT22;2606;50.934;6.934;2022-10-16T16:39:20;20.20;99.90
5174;DHT22;2606;50.934;6.934;2022-10-16T16:42:03;20.10;99.90
5174;DHT22;2606;50.934;6.934;2022-10-16T16:44:34;20.10;99.90
5174;DHT22;2606;50.934;6.934;2022-10-16T16:47:02;20.10;99.90
5174;DHT22;2606;50.934;6.934;2022-10-16T16:49:28;20.00;99.90
5174;DHT22;2606;50.934;6.934;2022-10-16T16:51:53;20.00;99.90
5174;DHT22;2606;50.934;6.934;2022-10-16T16:54:19;19.90;99.90
5174;DHT22;2606;50.934;6.934;2022-10-16T16:56:45;19.90;99.90
5174;DHT22;2606;50.934;6.934;2022-10-16T16:59:18;19.90;99.90
5174;DHT22;2606;50.934;6.934;2022-10-16T17:01:45;19.90;99.90
5174;DHT22;2606;50.934;6.934;2022-10-16T17:04:12;19.90;99.90
5174;DHT22;2606;50.934;6.934;2022-10-16T17:06:38;19.80;99.90
5174;DHT22;2606;50.934;6.934;2022-10-16T17:09:05;19.80;99.90
5174;DHT22;2606;50.934;6.934;2022-10-16T17:11:32;19.80;99.90
5174;DHT22;2606;50.934;6.934;2022-10-16T17:13:59;19.80;99.90
5174;DHT22;2606;50.934;6.934;2022-10-16T17:16:30;19.80;99.90
5174;DHT22;2606;50.934;6.934;2022-10-16T17:19:00;19.80;99.90
5174;DHT22;2606;50.934;6.934;2022-10-16T17:21:25;19.70;99.90
5174;DHT22;2606;50.934;6.934;2022-10-16T17:23:52;19.70;99.90
5174;DHT22;2606;50.934;6.934;2022-10-16T17:26:18;19.70;99.90
5174;DHT22;2606;50.934;6.934;2022-10-16T17:28:44;19.70;99.90
5174;DHT22;2606;50.934;6.934;2022-10-16T17:33:36;19.60;99.90
5174;DHT22;2606;50.934;6.934;2022-10-16T17:36:02;19.60;99.90
5174;DHT22;2606;50.934;6.934;2022-10-16T17:38:31;19.60;99.90
5174;DHT22;2606;50.934;6.934;2022-10-16T17:40:57;19.60;99.90
5174;DHT22;2606;50.934;6.934;2022-10-16T17:43:22;19.60;99.90
5174;DHT22;2606;50.934;6.934;2022-10-16T17:45:48;19.60;99.90
5174;DHT22;2606;50.934;6.934;2022-10-16T17:48:13;19.60;99.90
5174;DHT22;2606;50.934;6.934;2022-10-16T17:50:40;19.60;99.90
5174;DHT22;2606;50.934;6.934;2022-10-16T17:53:06;19.50;99.90
5174;DHT22;2606;50.934;6.934;2022-10-16T17:55:39;19.50;99.90
5174;DHT22;2606;50.934;6.934;2022-10-16T17:58:04;19.50;99.90
5174;DHT22;2606;50.934;6.934;2022-10-16T18:00:30;19.50;99.90
5174;DHT22;2606;50.934;6.934;2022-10-16T18:02:56;19.40;99.90
5174;DHT22;2606;50.934;6.934;2022-10-16T18:05:21;19.50;99.90